createdAt,value
2023-04-03T00:00:50.423Z,87.39
2023-04-03T00:03:18.293Z,88.33
2023-04-03T00:05:46.094Z,89.66
2023-04-03T00:08:13.741Z,92.42
2023-04-03T00:10:42.624Z,93.73
2023-04-03T00:13:11.370Z,92.90
2023-04-03T00:15:39.609Z,96.42
2023-04-03T00:18:07.920Z,96.76
2023-04-03T00:20:36.045Z,100.00
2023-04-03T00:23:04.349Z,100.00
2023-04-03T00:25:31.918Z,100.00
2023-04-03T00:28:01.164Z,100.00
2023-04-03T00:30:28.673Z,100.00
2023-04-03T00:32:56.493Z,99.54
2023-04-03T00:35:25.378Z,100.00
2023-04-03T00:37:54.013Z,100.00
2023-04-03T00:40:23.683Z,100.00
2023-04-03T00:42:53.929Z,100.00
2023-04-03T00:45:31.682Z,100.00
2023-04-03T00:48:01.405Z,100.00
2023-04-03T00:50:31.627Z,100.00
2023-04-03T00:52:59.815Z,100.00
2023-04-03T00:55:27.406Z,100.00
2023-04-03T00:57:56.882Z,100.00
2023-04-03T01:00:27.036Z,100.00
2023-04-03T01:02:55.643Z,100.00
2023-04-03T01:05:24.009Z,100.00
2023-04-03T01:07:53.113Z,100.00
2023-04-03T01:10:21.807Z,100.00
2023-04-03T01:12:51.148Z,100.00
2023-04-03T01:15:21.087Z,100.00
2023-04-03T01:17:51.825Z,100.00
2023-04-03T01:20:42.404Z,100.00
2023-04-03T01:23:24.451Z,100.00
2023-04-03T01:25:53.640Z,100.00
2023-04-03T01:28:24.092Z,100.00
2023-04-03T01:30:59.626Z,100.00
2023-04-03T01:33:28.470Z,100.00
2023-04-03T01:35:56.228Z,100.00
2023-04-03T01:38:23.828Z,100.00
2023-04-03T01:40:51.566Z,100.00
2023-04-03T01:43:19.091Z,100.00
2023-04-03T01:45:47.402Z,100.00
2023-04-03T01:48:15.224Z,100.00
2023-04-03T01:50:44.043Z,100.00
2023-04-03T01:53:11.527Z,100.00
2023-04-03T01:55:39.015Z,100.00
2023-04-03T01:58:06.473Z,100.00
2023-04-03T02:00:34.208Z,100.00
2023-04-03T02:03:02.137Z,100.00
2023-04-03T02:05:29.639Z,100.00
2023-04-03T02:07:58.469Z,100.00
2023-04-03T02:10:25.964Z,100.00
2023-04-03T02:12:53.468Z,100.00
2023-04-03T02:15:20.995Z,100.00
2023-04-03T02:17:48.601Z,100.00
2023-04-03T02:20:16.178Z,100.00
2023-04-03T02:22:43.916Z,100.00
2023-04-03T02:25:13.470Z,100.00
2023-04-03T02:27:40.966Z,100.00
2023-04-03T02:30:11.553Z,100.00
2023-04-03T02:32:39.162Z,100.00
2023-04-03T02:35:07.441Z,100.00
2023-04-03T02:37:34.932Z,100.00
2023-04-03T02:40:02.524Z,100.00
2023-04-03T02:42:31.695Z,100.00
2023-04-03T02:45:01.282Z,100.00
2023-04-03T02:47:29.091Z,100.00
2023-04-03T02:49:56.630Z,100.00
2023-04-03T02:52:24.230Z,100.00
2023-04-03T02:54:51.705Z,100.00
2023-04-03T02:57:20.621Z,100.00
2023-04-03T02:59:49.467Z,100.00
2023-04-03T03:02:16.931Z,100.00
2023-04-03T03:04:44.550Z,100.00
2023-04-03T03:07:12.096Z,100.00
2023-04-03T03:09:39.560Z,100.00
2023-04-03T03:12:07.280Z,100.00
2023-04-03T03:14:34.791Z,100.00
2023-04-03T03:17:03.616Z,100.00
2023-04-03T03:19:31.079Z,100.00
2023-04-03T03:21:58.850Z,100.00
2023-04-03T03:24:26.318Z,100.00
2023-04-03T03:26:53.785Z,100.00
2023-04-03T03:29:21.510Z,100.00
2023-04-03T03:31:49.015Z,100.00
2023-04-03T03:34:17.907Z,100.00
2023-04-03T03:36:45.775Z,100.00
2023-04-03T03:39:13.435Z,100.00
2023-04-03T03:41:40.908Z,100.00
2023-04-03T03:44:08.397Z,100.00
2023-04-03T03:46:36.109Z,100.00
2023-04-03T03:49:03.630Z,100.00
2023-04-03T03:51:32.466Z,100.00
2023-04-03T03:53:59.956Z,100.00
2023-04-03T03:56:27.473Z,100.00
2023-04-03T03:58:57.067Z,100.00
2023-04-03T04:01:24.847Z,100.00
2023-04-03T04:03:52.432Z,100.00
2023-04-03T04:06:19.985Z,100.00
2023-04-03T04:08:48.910Z,100.00
2023-04-03T04:11:16.605Z,100.00
2023-04-03T04:13:44.065Z,100.00
2023-04-03T04:16:11.652Z,100.00
2023-04-03T04:18:39.209Z,100.00
2023-04-03T04:21:06.788Z,100.00
2023-04-03T04:23:34.278Z,100.00
2023-04-03T04:26:03.082Z,100.00
2023-04-03T04:28:30.702Z,100.00
2023-04-03T04:30:58.195Z,100.00
2023-04-03T04:33:26.507Z,100.00
2023-04-03T04:35:54.149Z,100.00
2023-04-03T04:38:21.696Z,100.00
2023-04-03T04:40:49.726Z,100.00
2023-04-03T04:43:19.047Z,100.00
2023-04-03T04:45:46.536Z,100.00
2023-04-03T04:48:14.090Z,100.00
2023-04-03T04:50:41.581Z,100.00
2023-04-03T04:53:09.498Z,100.00
2023-04-03T04:55:37.217Z,100.00
2023-04-03T04:58:04.849Z,100.00
2023-04-03T05:00:33.680Z,100.00
2023-04-03T05:03:01.163Z,100.00
2023-04-03T05:05:28.638Z,100.00
2023-04-03T05:07:56.163Z,100.00
2023-04-03T05:10:23.789Z,100.00
2023-04-03T05:12:51.301Z,100.00
2023-04-03T05:15:18.792Z,100.00
2023-04-03T05:17:47.634Z,100.00
2023-04-03T05:20:15.456Z,100.00
2023-04-03T05:22:42.910Z,100.00
2023-04-03T05:25:11.015Z,100.00
2023-04-03T05:27:38.494Z,100.00
2023-04-03T05:30:07.041Z,100.00
2023-04-03T05:32:34.733Z,100.00
2023-04-03T05:35:03.643Z,100.00
2023-04-03T05:37:31.106Z,100.00
2023-04-03T05:39:58.728Z,100.00
2023-04-03T05:42:26.400Z,100.00
2023-04-03T05:44:53.900Z,100.00
2023-04-03T05:47:21.470Z,100.00
2023-04-03T05:49:49.418Z,100.00
2023-04-03T05:52:23.330Z,100.00
2023-04-03T05:54:51.017Z,100.00
2023-04-03T05:57:19.010Z,100.00
2023-04-03T05:59:47.396Z,100.00
2023-04-03T06:02:16.550Z,100.00
2023-04-03T06:04:44.294Z,100.00
2023-04-03T06:07:14.982Z,100.00
2023-04-03T06:09:44.443Z,100.00
2023-04-03T06:12:12.250Z,100.00
2023-04-03T06:14:39.762Z,100.00
2023-04-03T06:17:07.434Z,100.00
2023-04-03T06:19:35.440Z,100.00
2023-04-03T06:22:03.862Z,100.00
2023-04-03T06:24:31.917Z,100.00
2023-04-03T06:27:01.150Z,100.00
2023-04-03T06:29:28.654Z,100.00
2023-04-03T06:31:56.436Z,100.00
2023-04-03T06:34:24.064Z,100.00
2023-04-03T06:36:52.144Z,100.00
2023-04-03T06:39:23.015Z,100.00
2023-04-03T06:41:51.030Z,100.00
2023-04-03T06:44:19.926Z,100.00
2023-04-03T06:46:47.767Z,100.00
2023-04-03T06:49:16.029Z,100.00
2023-04-03T06:51:43.543Z,100.00
2023-04-03T06:54:11.175Z,100.00
2023-04-03T06:56:38.733Z,100.00
2023-04-03T06:59:06.217Z,100.00
2023-04-03T07:01:35.087Z,100.00
2023-04-03T07:04:03.169Z,100.00
2023-04-03T07:06:31.914Z,100.00
2023-04-03T07:08:59.372Z,100.00
2023-04-03T07:11:27.211Z,100.00
2023-04-03T07:13:54.842Z,100.00
2023-04-03T07:16:22.461Z,100.00
2023-04-03T07:18:51.875Z,100.00
2023-04-03T07:21:19.333Z,100.00
2023-04-03T07:23:46.841Z,100.00
2023-04-03T07:26:14.602Z,100.00
2023-04-03T07:28:42.439Z,100.00
2023-04-03T07:31:14.347Z,100.00
2023-04-03T07:33:43.580Z,98.39
2023-04-03T07:36:16.607Z,97.59
2023-04-03T07:38:44.157Z,97.51
2023-04-03T07:41:15.929Z,92.96
2023-04-03T07:43:43.524Z,92.04
2023-04-03T07:46:11.661Z,93.28
2023-04-03T07:48:39.253Z,86.46
2023-04-03T07:51:07.600Z,87.80
2023-04-03T07:53:36.735Z,89.04
2023-04-03T07:56:04.542Z,88.55
2023-04-03T07:58:32.286Z,87.71
2023-04-03T08:00:59.783Z,86.96
2023-04-03T08:03:27.544Z,84.42
2023-04-03T08:05:55.367Z,87.22
2023-04-03T08:08:24.657Z,87.00
2023-04-03T08:10:54.647Z,83.78
2023-04-03T08:13:23.144Z,81.08
2023-04-03T08:15:50.686Z,81.80
2023-04-03T08:18:19.344Z,80.34
2023-04-03T08:20:47.145Z,76.89
2023-04-03T08:23:14.912Z,70.91
2023-04-03T08:25:43.637Z,65.12
2023-04-03T08:28:13.277Z,62.42
2023-04-03T08:30:41.871Z,61.17
2023-04-03T08:33:09.494Z,61.90
2023-04-03T08:35:41.696Z,61.95
2023-04-03T08:38:10.032Z,64.99
2023-04-03T08:40:37.538Z,63.23
2023-04-03T08:43:29.729Z,62.02
2023-04-03T08:46:00.739Z,63.52
2023-04-03T08:48:33.005Z,63.39
2023-04-03T08:51:05.457Z,61.41
2023-04-03T08:53:37.132Z,60.95
2023-04-03T08:56:10.181Z,60.51
2023-04-03T08:58:46.625Z,60.03
2023-04-03T09:01:21.653Z,60.52
2023-04-03T09:03:49.221Z,58.18
2023-04-03T09:06:21.672Z,54.77
2023-04-03T09:08:55.326Z,53.83
2023-04-03T09:11:27.646Z,54.63
2023-04-03T09:14:02.076Z,55.15
2023-04-03T09:16:40.992Z,54.97
2023-04-03T09:19:20.647Z,55.73
2023-04-03T09:21:48.198Z,53.51
2023-04-03T09:24:18.258Z,51.90
2023-04-03T09:26:51.419Z,48.20
2023-04-03T09:29:22.982Z,44.64
2023-04-03T09:31:52.354Z,46.18
2023-04-03T09:34:24.362Z,48.20
2023-04-03T09:36:53.951Z,51.10
2023-04-03T09:39:23.325Z,52.06
2023-04-03T09:42:00.423Z,50.98
2023-04-03T09:44:31.863Z,51.21
2023-04-03T09:47:00.469Z,51.58
2023-04-03T09:49:28.238Z,49.97
2023-04-03T09:51:55.717Z,46.62
2023-04-03T09:54:36.930Z,46.58
2023-04-03T09:57:09.925Z,48.50
2023-04-03T09:59:43.215Z,48.13
2023-04-03T10:02:27.027Z,44.21
2023-04-03T10:05:08.395Z,44.09
2023-04-03T10:07:38.609Z,44.38
2023-04-03T10:10:20.961Z,45.08
2023-04-03T10:12:48.841Z,46.17
2023-04-03T10:15:21.052Z,44.38
2023-04-03T10:18:00.372Z,46.38
2023-04-03T10:20:36.333Z,44.95
2023-04-03T10:23:17.956Z,42.44
2023-04-03T10:25:57.823Z,40.10
2023-04-03T10:28:32.948Z,36.75
2023-04-03T10:31:12.569Z,39.08
2023-04-03T10:33:53.252Z,41.77
2023-04-03T10:36:31.012Z,44.45
2023-04-03T10:39:10.853Z,42.79
2023-04-03T10:41:49.228Z,42.09
2023-04-03T10:44:29.723Z,41.78
2023-04-03T10:47:07.688Z,37.55
2023-04-03T10:52:24.294Z,40.79
2023-04-03T10:55:03.056Z,39.43
2023-04-03T10:57:32.174Z,36.73
2023-04-03T11:00:03.596Z,36.70
2023-04-03T11:02:35.013Z,36.18
2023-04-03T11:05:10.208Z,37.21
2023-04-03T11:07:42.471Z,38.97
2023-04-03T11:10:17.914Z,40.32
2023-04-03T11:12:48.935Z,40.14
2023-04-03T11:15:18.849Z,39.54
2023-04-03T11:17:53.535Z,41.59
2023-04-03T11:20:28.669Z,38.08
2023-04-03T11:23:02.250Z,38.44
2023-04-03T11:25:31.712Z,35.73
2023-04-03T11:28:02.653Z,37.84
2023-04-03T11:30:35.631Z,38.71
2023-04-03T11:33:19.246Z,40.05
2023-04-03T11:35:49.329Z,42.19
2023-04-03T11:38:23.851Z,43.78
2023-04-03T11:40:52.160Z,40.74
2023-04-03T11:43:26.712Z,41.18
2023-04-03T11:46:01.715Z,39.22
2023-04-03T11:48:49.861Z,36.80
2023-04-03T11:51:40.598Z,37.60
2023-04-03T11:54:47.248Z,37.99
2023-04-03T11:57:39.993Z,39.83
2023-04-03T12:00:41.342Z,39.71
2023-04-03T12:03:53.840Z,39.29
2023-04-03T12:06:55.759Z,39.91
2023-04-03T12:09:31.379Z,36.33
2023-04-03T12:12:01.418Z,35.96
2023-04-03T12:14:30.758Z,35.81
2023-04-03T12:17:00.803Z,36.24
2023-04-03T12:19:42.549Z,36.43
2023-04-03T12:22:16.140Z,37.75
2023-04-03T12:24:46.777Z,36.74
2023-04-03T12:27:36.460Z,35.58
2023-04-03T12:30:12.798Z,37.03
2023-04-03T12:32:56.273Z,35.20
2023-04-03T12:35:34.979Z,35.70
2023-04-03T12:38:34.449Z,38.99
2023-04-03T12:41:19.899Z,40.83
2023-04-03T12:44:01.407Z,38.07
2023-04-03T12:46:38.395Z,39.55
2023-04-03T12:49:20.072Z,40.65
2023-04-03T12:51:48.722Z,39.81
2023-04-03T12:54:19.725Z,40.96
2023-04-03T12:56:48.569Z,41.30
2023-04-03T12:59:18.346Z,36.00
2023-04-03T13:01:46.425Z,34.89
2023-04-03T13:04:14.354Z,36.88
2023-04-03T13:06:43.466Z,35.48
2023-04-03T13:09:22.643Z,38.90
2023-04-03T13:11:56.702Z,40.39
2023-04-03T13:14:27.106Z,41.29
2023-04-03T13:16:55.898Z,38.65
2023-04-03T13:19:27.557Z,37.18
2023-04-03T13:22:02.025Z,35.33
2023-04-03T13:24:31.216Z,34.98
2023-04-03T13:27:00.316Z,34.66
2023-04-03T13:29:31.952Z,34.92
2023-04-03T13:32:02.249Z,36.46
2023-04-03T13:34:32.544Z,35.30
2023-04-03T13:37:04.235Z,35.23
2023-04-03T13:39:33.675Z,37.10
2023-04-03T13:42:16.484Z,37.27
2023-04-03T13:44:44.306Z,35.44
2023-04-03T13:47:21.138Z,36.52
2023-04-03T13:50:02.018Z,38.12
2023-04-03T13:52:33.498Z,39.63
2023-04-03T13:55:05.848Z,39.09
2023-04-03T13:57:36.949Z,37.97
2023-04-03T14:00:36.466Z,36.29
2023-04-03T14:03:04.206Z,36.26
2023-04-03T14:05:31.828Z,37.16
2023-04-03T14:07:59.897Z,38.64
2023-04-03T14:10:27.389Z,38.73
2023-04-03T14:12:56.684Z,39.40
2023-04-03T14:15:27.099Z,40.31
2023-04-03T14:17:55.386Z,37.91
2023-04-03T14:20:25.556Z,36.83
2023-04-03T14:22:54.620Z,35.35
2023-04-03T14:25:24.550Z,37.29
2023-04-03T14:27:54.680Z,38.66
2023-04-03T14:30:27.622Z,35.67
2023-04-03T14:32:55.649Z,36.48
2023-04-03T14:35:23.637Z,37.44
2023-04-03T14:37:52.616Z,37.38
2023-04-03T14:40:24.610Z,37.77
2023-04-03T14:42:52.545Z,40.25
2023-04-03T14:45:20.320Z,42.42
2023-04-03T14:47:51.516Z,43.84
2023-04-03T14:50:21.943Z,42.84
2023-04-03T14:52:51.041Z,41.60
2023-04-03T14:55:21.158Z,39.11
2023-04-03T14:57:48.848Z,39.76
2023-04-03T15:00:19.072Z,40.77
2023-04-03T15:02:47.309Z,42.15
2023-04-03T15:05:17.637Z,43.44
2023-04-03T15:07:48.813Z,42.84
2023-04-03T15:10:19.262Z,44.23
2023-04-03T15:12:47.770Z,45.48
2023-04-03T15:15:20.638Z,44.76
2023-04-03T15:17:54.627Z,42.55
2023-04-03T15:20:25.829Z,38.41
2023-04-03T15:22:53.587Z,39.25
2023-04-03T15:25:21.081Z,39.85
2023-04-03T15:27:48.875Z,38.49
2023-04-03T15:30:19.273Z,39.76
2023-04-03T15:32:47.450Z,41.85
2023-04-03T15:35:15.125Z,44.19
2023-04-03T15:37:44.050Z,45.29
2023-04-03T15:40:12.526Z,45.37
2023-04-03T15:42:41.011Z,43.96
2023-04-03T15:45:09.968Z,43.75
2023-04-03T15:47:37.784Z,40.97
2023-04-03T15:50:06.949Z,41.35
2023-04-03T15:52:34.597Z,40.80
2023-04-03T15:55:03.536Z,41.34
2023-04-03T16:00:03.545Z,42.09
2023-04-03T16:02:31.195Z,42.40
2023-04-03T16:04:58.777Z,43.29
2023-04-03T16:07:26.339Z,45.05
2023-04-03T16:09:54.057Z,44.96
2023-04-03T16:12:22.876Z,45.33
2023-04-03T16:14:50.326Z,45.57
2023-04-03T16:17:17.839Z,45.71
2023-04-03T16:19:45.354Z,46.40
2023-04-03T16:22:12.910Z,46.32
2023-04-03T16:24:40.453Z,47.06
2023-04-03T16:27:08.030Z,46.65
2023-04-03T16:29:37.203Z,46.55
2023-04-03T16:32:05.101Z,47.58
2023-04-03T16:34:33.675Z,47.84
2023-04-03T16:37:01.790Z,47.89
2023-04-03T16:39:29.353Z,49.10
2023-04-03T16:41:56.837Z,49.03
2023-04-03T16:44:24.340Z,49.64
2023-04-03T16:46:53.203Z,48.75
2023-04-03T16:49:20.779Z,49.21
2023-04-03T16:51:50.328Z,49.48
2023-04-03T16:54:17.806Z,49.73
2023-04-03T16:56:45.380Z,49.94
2023-04-03T16:59:12.867Z,50.71
2023-04-03T17:01:40.495Z,51.11
2023-04-03T17:04:09.412Z,51.47
2023-04-03T17:06:36.938Z,51.84
2023-04-03T17:09:04.735Z,51.86
2023-04-03T17:11:32.375Z,51.85
2023-04-03T17:14:00.411Z,51.31
2023-04-03T17:16:28.555Z,51.82
2023-04-03T17:18:56.515Z,51.52
2023-04-03T17:21:25.687Z,51.81
2023-04-03T17:23:58.336Z,51.75
2023-04-03T17:26:26.542Z,52.03
2023-04-03T17:28:54.326Z,52.86
2023-04-03T17:31:21.921Z,52.45
2023-04-03T17:33:49.458Z,52.68
2023-04-03T17:36:16.975Z,52.69
2023-04-03T17:38:47.188Z,52.73
2023-04-03T17:41:14.692Z,52.05
2023-04-03T17:43:42.265Z,52.23
2023-04-03T17:46:11.619Z,52.10
2023-04-03T17:48:41.222Z,52.44
2023-04-03T17:51:10.452Z,52.26
2023-04-03T17:53:38.185Z,51.97
2023-04-03T17:56:10.845Z,52.91
2023-04-03T17:58:38.474Z,53.01
2023-04-03T18:01:10.997Z,52.67
2023-04-03T18:03:38.786Z,52.77
2023-04-03T18:06:08.511Z,52.64
2023-04-03T18:08:39.585Z,52.50
2023-04-03T18:11:07.712Z,52.01
2023-04-03T18:13:37.619Z,52.32
2023-04-03T18:16:06.014Z,53.01
2023-04-03T18:18:33.626Z,53.01
2023-04-03T18:21:01.112Z,53.73
2023-04-03T18:23:32.361Z,54.23
2023-04-03T18:26:01.166Z,54.20
2023-04-03T18:28:30.218Z,54.88
2023-04-03T18:30:59.397Z,55.07
2023-04-03T18:33:26.884Z,55.25
2023-04-03T18:35:54.401Z,54.86
2023-04-03T18:38:21.873Z,54.18
2023-04-03T18:40:50.080Z,54.95
2023-04-03T18:43:17.994Z,54.71
2023-04-03T18:45:47.067Z,54.99
2023-04-03T18:48:15.986Z,54.95
2023-04-03T18:50:43.598Z,54.84
2023-04-03T18:53:11.327Z,55.34
2023-04-03T18:55:39.054Z,56.36
2023-04-03T18:58:06.622Z,56.46
2023-04-03T19:00:34.114Z,57.41
2023-04-03T19:03:01.762Z,57.75
2023-04-03T19:05:31.379Z,58.01
2023-04-03T19:07:59.426Z,58.68
2023-04-03T19:10:27.208Z,60.17
2023-04-03T19:12:54.950Z,59.83
2023-04-03T19:15:24.324Z,58.19
2023-04-03T19:17:51.863Z,58.01
2023-04-03T19:20:20.258Z,57.87
2023-04-03T19:22:49.086Z,58.79
2023-04-03T19:25:16.786Z,60.68
2023-04-03T19:27:44.258Z,62.73
2023-04-03T19:30:13.248Z,62.74
2023-04-03T19:32:40.967Z,62.94
2023-04-03T19:35:09.466Z,64.87
2023-04-03T19:37:36.941Z,64.65
2023-04-03T19:40:07.382Z,64.07
2023-04-03T19:42:36.741Z,62.86
2023-04-03T19:45:04.665Z,62.89
2023-04-03T19:47:32.816Z,62.07
2023-04-03T19:50:00.309Z,62.10
2023-04-03T19:52:27.892Z,62.80
2023-04-03T19:54:55.379Z,63.77
2023-04-03T19:57:24.230Z,64.31
2023-04-03T19:59:51.715Z,65.11
2023-04-03T20:02:21.250Z,66.07
2023-04-03T20:04:48.855Z,65.29
2023-04-03T20:07:16.504Z,67.29
2023-04-03T20:09:44.068Z,67.51
2023-04-03T20:12:12.205Z,68.04
2023-04-03T20:14:41.028Z,67.71
2023-04-03T20:17:08.641Z,68.35
2023-04-03T20:19:36.845Z,69.50
2023-04-03T20:22:04.427Z,69.42
2023-04-03T20:24:32.332Z,70.46
2023-04-03T20:26:59.998Z,70.87
2023-04-03T20:29:27.745Z,70.80
2023-04-03T20:31:56.640Z,70.73
2023-04-03T20:34:24.380Z,72.17
2023-04-03T20:36:53.045Z,71.29
2023-04-03T20:39:23.980Z,71.03
2023-04-03T20:41:51.721Z,69.72
2023-04-03T20:44:19.718Z,69.33
2023-04-03T20:46:52.806Z,70.04
2023-04-03T20:49:22.631Z,69.31
2023-04-03T20:51:51.117Z,69.31
2023-04-03T20:54:19.058Z,69.79
2023-04-03T20:56:49.647Z,68.94
2023-04-03T20:59:18.375Z,68.24
2023-04-03T21:01:46.845Z,67.45
2023-04-03T21:04:19.592Z,65.98
2023-04-03T21:07:24.536Z,64.01
2023-04-03T21:10:29.475Z,66.69
2023-04-03T21:13:34.783Z,70.86
2023-04-03T21:16:02.867Z,72.65
2023-04-03T21:18:51.159Z,71.94
2023-04-03T21:21:20.564Z,70.94
2023-04-03T21:23:49.373Z,72.80
2023-04-03T21:26:18.350Z,74.01
2023-04-03T21:28:46.306Z,72.73
2023-04-03T21:31:15.060Z,70.58
2023-04-03T21:33:43.906Z,70.64
2023-04-03T21:36:11.373Z,70.42
2023-04-03T21:38:38.879Z,70.22
2023-04-03T21:41:06.432Z,68.41
2023-04-03T21:43:33.906Z,70.03
2023-04-03T21:46:01.890Z,70.37
2023-04-03T21:48:30.529Z,72.87
2023-04-03T21:51:06.626Z,71.85
2023-04-03T21:53:34.441Z,73.88
2023-04-03T21:56:02.456Z,74.19
2023-04-03T21:58:31.970Z,75.00
2023-04-03T22:01:08.664Z,74.45
2023-04-03T22:03:36.148Z,76.10
2023-04-03T22:06:05.548Z,76.32
2023-04-03T22:08:33.604Z,76.76
2023-04-03T22:11:02.533Z,78.47
2023-04-03T22:13:30.122Z,78.31
2023-04-03T22:15:57.742Z,80.26
2023-04-03T22:18:25.582Z,79.95
2023-04-03T22:20:53.290Z,79.36
2023-04-03T22:23:22.951Z,78.48
2023-04-03T22:26:01.199Z,79.78
2023-04-03T22:28:28.905Z,79.30
2023-04-03T22:30:57.061Z,79.11
2023-04-03T22:33:24.556Z,77.00
2023-04-03T22:35:52.341Z,77.40
2023-04-03T22:38:19.830Z,76.83
2023-04-03T22:40:49.130Z,74.05
2023-04-03T22:43:16.736Z,75.36
2023-04-03T22:45:50.811Z,75.33
2023-04-03T22:48:18.501Z,77.67
2023-04-03T22:50:46.901Z,78.88
2023-04-03T22:53:14.372Z,76.58
2023-04-03T22:55:42.050Z,72.23
2023-04-03T22:58:10.884Z,72.23
2023-04-03T23:00:38.488Z,72.24
2023-04-03T23:03:06.161Z,72.15
2023-04-03T23:05:33.711Z,72.43
2023-04-03T23:08:01.367Z,71.12
2023-04-03T23:10:28.893Z,71.41
2023-04-03T23:12:56.347Z,70.88
2023-04-03T23:15:25.128Z,70.82
2023-04-03T23:17:52.635Z,70.13
2023-04-03T23:20:20.198Z,68.62
2023-04-03T23:22:47.663Z,69.85
2023-04-03T23:25:15.322Z,69.38
2023-04-03T23:27:42.780Z,69.39
2023-04-03T23:30:11.478Z,70.19
2023-04-03T23:32:40.372Z,70.62
2023-04-03T23:35:08.537Z,72.01
2023-04-03T23:37:36.279Z,72.18
2023-04-03T23:40:03.759Z,71.53
2023-04-03T23:42:31.287Z,68.19
2023-04-03T23:44:58.765Z,69.91
2023-04-03T23:47:26.394Z,70.12
2023-04-03T23:49:55.424Z,69.43
2023-04-03T23:52:22.914Z,70.28
2023-04-03T23:54:50.507Z,71.17
2023-04-03T23:57:17.988Z,70.51
2023-04-03T23:59:45.476Z,70.97
